sensor_id;sensor_type;location;lat;lon;timestamp;temperature;humidity
20366;DHT22;10341;49.894;8.822;2023-06-10T00:02:52;14.40;99.90
20366;DHT22;10341;49.894;8.822;2023-06-10T00:08:12;14.30;99.90
20366;DHT22;10341;49.894;8.822;2023-06-10T00:13:31;14.20;99.90
20366;DHT22;10341;49.894;8.822;2023-06-10T00:18:50;14.10;99.90
20366;DHT22;10341;49.894;8.822;2023-06-10T00:24:10;14.00;99.90
20366;DHT22;10341;49.894;8.822;2023-06-10T00:29:31;14.00;99.90
20366;DHT22;10341;49.894;8.822;2023-06-10T00:34:52;13.90;99.90
20366;DHT22;10341;49.894;8.822;2023-06-10T00:40:11;13.80;99.90
20366;DHT22;10341;49.894;8.822;2023-06-10T00:45:31;13.80;99.90
20366;DHT22;10341;49.894;8.822;2023-06-10T00:50:51;13.70;99.90
20366;DHT22;10341;49.894;8.822;2023-06-10T00:56:11;13.70;99.90
20366;DHT22;10341;49.894;8.822;2023-06-10T01:01:19;13.60;99.90
20366;DHT22;10341;49.894;8.822;2023-06-10T01:06:52;13.50;99.90
20366;DHT22;10341;49.894;8.822;2023-06-10T01:12:19;13.50;99.90
20366;DHT22;10341;49.894;8.822;2023-06-10T01:17:56;13.30;99.90
20366;DHT22;10341;49.894;8.822;2023-06-10T01:23:17;13.30;99.90
20366;DHT22;10341;49.894;8.822;2023-06-10T01:28:44;13.20;99.90
20366;DHT22;10341;49.894;8.822;2023-06-10T01:34:10;13.10;99.90
20366;DHT22;10341;49.894;8.822;2023-06-10T01:39:32;13.00;99.90
20366;DHT22;10341;49.894;8.822;2023-06-10T01:44:51;13.00;99.90
20366;DHT22;10341;49.894;8.822;2023-06-10T01:50:10;12.90;99.90
20366;DHT22;10341;49.894;8.822;2023-06-10T01:55:30;12.90;99.90
20366;DHT22;10341;49.894;8.822;2023-06-10T02:00:49;12.90;99.90
20366;DHT22;10341;49.894;8.822;2023-06-10T02:06:08;12.80;99.90
20366;DHT22;10341;49.894;8.822;2023-06-10T02:11:27;12.70;99.90
20366;DHT22;10341;49.894;8.822;2023-06-10T02:16:46;12.70;99.90
20366;DHT22;10341;49.894;8.822;2023-06-10T02:22:07;12.60;99.90
20366;DHT22;10341;49.894;8.822;2023-06-10T02:27:26;12.60;99.90
20366;DHT22;10341;49.894;8.822;2023-06-10T02:32:47;12.60;99.90
20366;DHT22;10341;49.894;8.822;2023-06-10T02:38:09;12.50;99.90
20366;DHT22;10341;49.894;8.822;2023-06-10T02:43:29;12.50;99.90
20366;DHT22;10341;49.894;8.822;2023-06-10T02:48:48;12.40;99.90
20366;DHT22;10341;49.894;8.822;2023-06-10T02:54:14;12.40;99.90
20366;DHT22;10341;49.894;8.822;2023-06-10T02:59:35;12.30;99.90
20366;DHT22;10341;49.894;8.822;2023-06-10T03:04:55;12.20;99.90
20366;DHT22;10341;49.894;8.822;2023-06-10T03:10:15;12.20;99.90
20366;DHT22;10341;49.894;8.822;2023-06-10T03:15:35;12.10;99.90
20366;DHT22;10341;49.894;8.822;2023-06-10T03:20:59;12.10;99.90
20366;DHT22;10341;49.894;8.822;2023-06-10T03:26:20;12.10;99.90
20366;DHT22;10341;49.894;8.822;2023-06-10T03:31:41;12.00;99.90
20366;DHT22;10341;49.894;8.822;2023-06-10T03:37:01;12.10;99.90
20366;DHT22;10341;49.894;8.822;2023-06-10T03:42:22;12.00;99.90
20366;DHT22;10341;49.894;8.822;2023-06-10T03:47:42;12.00;99.90
20366;DHT22;10341;49.894;8.822;2023-06-10T03:53:06;12.10;99.90
20366;DHT22;10341;49.894;8.822;2023-06-10T03:58:26;12.10;99.90
20366;DHT22;10341;49.894;8.822;2023-06-10T04:03:45;12.10;99.90
20366;DHT22;10341;49.894;8.822;2023-06-10T04:09:04;12.20;99.90
20366;DHT22;10341;49.894;8.822;2023-06-10T04:14:24;12.30;99.90
20366;DHT22;10341;49.894;8.822;2023-06-10T04:19:43;12.40;99.90
20366;DHT22;10341;49.894;8.822;2023-06-10T04:25:03;12.50;99.90
20366;DHT22;10341;49.894;8.822;2023-06-10T04:30:22;12.60;99.90
20366;DHT22;10341;49.894;8.822;2023-06-10T04:35:44;12.70;99.90
20366;DHT22;10341;49.894;8.822;2023-06-10T04:41:06;12.90;99.90
20366;DHT22;10341;49.894;8.822;2023-06-10T04:46:19;13.00;99.90
20366;DHT22;10341;49.894;8.822;2023-06-10T04:51:39;13.20;99.90
20366;DHT22;10341;49.894;8.822;2023-06-10T04:56:58;13.40;99.90
20366;DHT22;10341;49.894;8.822;2023-06-10T05:02:19;13.70;99.90
20366;DHT22;10341;49.894;8.822;2023-06-10T05:07:39;13.90;99.90
20366;DHT22;10341;49.894;8.822;2023-06-10T05:12:58;14.10;99.90
20366;DHT22;10341;49.894;8.822;2023-06-10T05:18:17;14.40;99.90
20366;DHT22;10341;49.894;8.822;2023-06-10T05:23:36;14.60;99.90
20366;DHT22;10341;49.894;8.822;2023-06-10T05:28:56;14.90;99.90
20366;DHT22;10341;49.894;8.822;2023-06-10T05:34:15;15.30;99.90
20366;DHT22;10341;49.894;8.822;2023-06-10T05:39:35;15.60;99.90
20366;DHT22;10341;49.894;8.822;2023-06-10T05:44:56;15.90;99.90
20366;DHT22;10341;49.894;8.822;2023-06-10T05:50:15;16.30;99.90
20366;DHT22;10341;49.894;8.822;2023-06-10T05:55:34;16.60;99.90
20366;DHT22;10341;49.894;8.822;2023-06-10T06:00:54;17.00;99.90
20366;DHT22;10341;49.894;8.822;2023-06-10T06:06:13;17.40;99.90
20366;DHT22;10341;49.894;8.822;2023-06-10T06:11:33;17.60;99.90
20366;DHT22;10341;49.894;8.822;2023-06-10T06:16:53;17.80;99.90
20366;DHT22;10341;49.894;8.822;2023-06-10T06:22:12;18.00;99.90
20366;DHT22;10341;49.894;8.822;2023-06-10T06:27:31;18.30;99.90
20366;DHT22;10341;49.894;8.822;2023-06-10T06:32:50;18.60;99.90
20366;DHT22;10341;49.894;8.822;2023-06-10T06:38:10;18.80;99.90
20366;DHT22;10341;49.894;8.822;2023-06-10T06:43:30;19.10;99.90
20366;DHT22;10341;49.894;8.822;2023-06-10T06:49:00;19.40;99.90
20366;DHT22;10341;49.894;8.822;2023-06-10T06:54:20;19.60;99.90
20366;DHT22;10341;49.894;8.822;2023-06-10T06:59:39;19.80;99.90
20366;DHT22;10341;49.894;8.822;2023-06-10T07:04:58;20.10;99.90
20366;DHT22;10341;49.894;8.822;2023-06-10T07:10:18;20.40;99.90
20366;DHT22;10341;49.894;8.822;2023-06-10T07:15:38;20.70;99.90
20366;DHT22;10341;49.894;8.822;2023-06-10T07:20:58;21.00;99.90
20366;DHT22;10341;49.894;8.822;2023-06-10T07:26:17;21.40;99.90
20366;DHT22;10341;49.894;8.822;2023-06-10T07:31:36;21.70;99.90
20366;DHT22;10341;49.894;8.822;2023-06-10T07:36:56;21.80;99.90
20366;DHT22;10341;49.894;8.822;2023-06-10T07:42:15;22.00;99.90
20366;DHT22;10341;49.894;8.822;2023-06-10T07:47:35;22.20;99.90
20366;DHT22;10341;49.894;8.822;2023-06-10T07:52:47;22.60;99.90
20366;DHT22;10341;49.894;8.822;2023-06-10T07:58:06;23.00;99.90
20366;DHT22;10341;49.894;8.822;2023-06-10T08:03:25;23.50;99.90
20366;DHT22;10341;49.894;8.822;2023-06-10T08:08:44;24.20;99.90
20366;DHT22;10341;49.894;8.822;2023-06-10T08:14:05;25.60;99.90
20366;DHT22;10341;49.894;8.822;2023-06-10T08:19:25;27.40;99.40
20366;DHT22;10341;49.894;8.822;2023-06-10T08:24:44;28.00;96.60
20366;DHT22;10341;49.894;8.822;2023-06-10T08:30:04;29.60;94.40
20366;DHT22;10341;49.894;8.822;2023-06-10T08:35:24;30.10;94.70
20366;DHT22;10341;49.894;8.822;2023-06-10T08:40:43;31.60;91.20
20366;DHT22;10341;49.894;8.822;2023-06-10T08:46:03;32.10;86.90
20366;DHT22;10341;49.894;8.822;2023-06-10T08:51:23;33.30;80.40
20366;DHT22;10341;49.894;8.822;2023-06-10T08:56:45;32.30;81.30
20366;DHT22;10341;49.894;8.822;2023-06-10T09:02:08;33.60;77.60
20366;DHT22;10341;49.894;8.822;2023-06-10T09:07:29;34.60;77.80
20366;DHT22;10341;49.894;8.822;2023-06-10T09:12:50;33.90;74.80
20366;DHT22;10341;49.894;8.822;2023-06-10T09:18:10;34.70;73.90
20366;DHT22;10341;49.894;8.822;2023-06-10T09:23:30;35.00;70.30
20366;DHT22;10341;49.894;8.822;2023-06-10T09:28:50;35.60;70.70
20366;DHT22;10341;49.894;8.822;2023-06-10T09:34:12;36.00;70.10
20366;DHT22;10341;49.894;8.822;2023-06-10T09:39:31;36.30;67.40
20366;DHT22;10341;49.894;8.822;2023-06-10T09:44:51;35.10;65.80
20366;DHT22;10341;49.894;8.822;2023-06-10T09:50:10;34.50;66.70
20366;DHT22;10341;49.894;8.822;2023-06-10T09:55:33;36.00;66.20
20366;DHT22;10341;49.894;8.822;2023-06-10T10:00:55;36.00;64.90
20366;DHT22;10341;49.894;8.822;2023-06-10T10:06:15;38.00;64.20
20366;DHT22;10341;49.894;8.822;2023-06-10T10:11:34;38.70;62.10
20366;DHT22;10341;49.894;8.822;2023-06-10T10:16:55;37.40;58.80
20366;DHT22;10341;49.894;8.822;2023-06-10T10:22:19;37.50;59.20
20366;DHT22;10341;49.894;8.822;2023-06-10T10:27:51;38.30;57.80
20366;DHT22;10341;49.894;8.822;2023-06-10T10:33:29;37.60;60.40
20366;DHT22;10341;49.894;8.822;2023-06-10T10:38:50;39.40;56.60
20366;DHT22;10341;49.894;8.822;2023-06-10T10:44:10;38.80;57.40
20366;DHT22;10341;49.894;8.822;2023-06-10T10:49:32;37.80;55.90
20366;DHT22;10341;49.894;8.822;2023-06-10T10:54:53;38.10;56.50
20366;DHT22;10341;49.894;8.822;2023-06-10T11:05:47;37.70;57.70
20366;DHT22;10341;49.894;8.822;2023-06-10T11:16:50;37.70;54.70
20366;DHT22;10341;49.894;8.822;2023-06-10T11:22:09;38.50;56.80
20366;DHT22;10341;49.894;8.822;2023-06-10T11:27:38;38.50;53.80
20366;DHT22;10341;49.894;8.822;2023-06-10T11:32:58;36.40;57.90
20366;DHT22;10341;49.894;8.822;2023-06-10T11:38:18;38.80;53.60
20366;DHT22;10341;49.894;8.822;2023-06-10T11:43:43;39.00;53.80
20366;DHT22;10341;49.894;8.822;2023-06-10T11:49:04;38.90;53.30
20366;DHT22;10341;49.894;8.822;2023-06-10T11:54:24;40.40;53.10
20366;DHT22;10341;49.894;8.822;2023-06-10T11:59:43;40.30;52.00
20366;DHT22;10341;49.894;8.822;2023-06-10T12:05:12;40.40;51.60
20366;DHT22;10341;49.894;8.822;2023-06-10T12:10:32;37.90;54.00
20366;DHT22;10341;49.894;8.822;2023-06-10T12:15:52;38.30;53.60
20366;DHT22;10341;49.894;8.822;2023-06-10T12:21:24;39.00;52.90
20366;DHT22;10341;49.894;8.822;2023-06-10T12:26:44;39.80;51.30
20366;DHT22;10341;49.894;8.822;2023-06-10T12:32:04;38.50;52.90
20366;DHT22;10341;49.894;8.822;2023-06-10T12:37:25;39.00;51.80
20366;DHT22;10341;49.894;8.822;2023-06-10T12:42:44;36.40;54.50
20366;DHT22;10341;49.894;8.822;2023-06-10T12:48:12;37.50;53.50
20366;DHT22;10341;49.894;8.822;2023-06-10T12:53:32;37.90;53.10
20366;DHT22;10341;49.894;8.822;2023-06-10T12:58:51;38.70;54.10
20366;DHT22;10341;49.894;8.822;2023-06-10T13:04:10;39.80;52.20
20366;DHT22;10341;49.894;8.822;2023-06-10T13:09:30;40.30;51.90
20366;DHT22;10341;49.894;8.822;2023-06-10T13:14:49;40.20;51.80
20366;DHT22;10341;49.894;8.822;2023-06-10T13:20:08;39.70;51.00
20366;DHT22;10341;49.894;8.822;2023-06-10T13:25:28;40.20;50.00
20366;DHT22;10341;49.894;8.822;2023-06-10T13:30:47;39.50;52.60
20366;DHT22;10341;49.894;8.822;2023-06-10T13:36:06;39.40;51.70
20366;DHT22;10341;49.894;8.822;2023-06-10T13:41:25;39.10;51.90
20366;DHT22;10341;49.894;8.822;2023-06-10T13:46:47;37.30;54.30
20366;DHT22;10341;49.894;8.822;2023-06-10T13:52:07;36.10;55.70
20366;DHT22;10341;49.894;8.822;2023-06-10T13:57:26;35.60;56.20
20366;DHT22;10341;49.894;8.822;2023-06-10T14:02:45;37.60;55.20
20366;DHT22;10341;49.894;8.822;2023-06-10T14:08:05;38.30;53.30
20366;DHT22;10341;49.894;8.822;2023-06-10T14:13:25;36.90;54.80
20366;DHT22;10341;49.894;8.822;2023-06-10T14:18:44;35.70;55.30
20366;DHT22;10341;49.894;8.822;2023-06-10T14:24:03;35.00;55.50
20366;DHT22;10341;49.894;8.822;2023-06-10T14:29:23;36.20;56.20
20366;DHT22;10341;49.894;8.822;2023-06-10T14:34:42;35.80;54.60
20366;DHT22;10341;49.894;8.822;2023-06-10T14:40:04;36.30;53.60
20366;DHT22;10341;49.894;8.822;2023-06-10T14:45:24;36.70;54.20
20366;DHT22;10341;49.894;8.822;2023-06-10T14:50:44;36.90;53.30
20366;DHT22;10341;49.894;8.822;2023-06-10T14:56:05;36.70;54.50
20366;DHT22;10341;49.894;8.822;2023-06-10T15:01:24;35.10;54.60
20366;DHT22;10341;49.894;8.822;2023-06-10T15:06:43;35.50;55.40
20366;DHT22;10341;49.894;8.822;2023-06-10T15:12:03;35.70;54.00
20366;DHT22;10341;49.894;8.822;2023-06-10T15:17:23;35.80;55.20
20366;DHT22;10341;49.894;8.822;2023-06-10T15:22:42;37.30;52.40
20366;DHT22;10341;49.894;8.822;2023-06-10T15:28:01;37.30;52.20
20366;DHT22;10341;49.894;8.822;2023-06-10T15:33:20;37.60;51.40
20366;DHT22;10341;49.894;8.822;2023-06-10T15:38:39;37.90;52.00
20366;DHT22;10341;49.894;8.822;2023-06-10T15:43:59;38.80;51.60
20366;DHT22;10341;49.894;8.822;2023-06-10T15:49:18;39.10;51.70
20366;DHT22;10341;49.894;8.822;2023-06-10T15:54:37;39.90;50.70
20366;DHT22;10341;49.894;8.822;2023-06-10T15:59:56;39.00;52.10
20366;DHT22;10341;49.894;8.822;2023-06-10T16:05:15;38.70;50.30
20366;DHT22;10341;49.894;8.822;2023-06-10T16:10:35;37.60;52.10
20366;DHT22;10341;49.894;8.822;2023-06-10T16:15:54;38.60;51.80
20366;DHT22;10341;49.894;8.822;2023-06-10T16:21:13;39.30;50.50
20366;DHT22;10341;49.894;8.822;2023-06-10T16:26:33;39.60;50.80
20366;DHT22;10341;49.894;8.822;2023-06-10T16:31:52;39.00;51.80
20366;DHT22;10341;49.894;8.822;2023-06-10T16:37:13;38.50;50.90
20366;DHT22;10341;49.894;8.822;2023-06-10T16:42:32;38.60;52.10
20366;DHT22;10341;49.894;8.822;2023-06-10T16:47:51;37.10;53.60
20366;DHT22;10341;49.894;8.822;2023-06-10T16:53:11;34.80;56.80
20366;DHT22;10341;49.894;8.822;2023-06-10T16:58:31;33.10;58.80
20366;DHT22;10341;49.894;8.822;2023-06-10T17:03:50;32.10;61.50
20366;DHT22;10341;49.894;8.822;2023-06-10T17:09:09;31.30;62.90
20366;DHT22;10341;49.894;8.822;2023-06-10T17:14:28;30.90;63.30
20366;DHT22;10341;49.894;8.822;2023-06-10T17:19:47;30.20;65.60
20366;DHT22;10341;49.894;8.822;2023-06-10T17:25:07;30.00;66.10
20366;DHT22;10341;49.894;8.822;2023-06-10T17:30:26;29.10;69.30
20366;DHT22;10341;49.894;8.822;2023-06-10T17:35:46;28.70;71.30
20366;DHT22;10341;49.894;8.822;2023-06-10T17:41:05;28.50;72.40
20366;DHT22;10341;49.894;8.822;2023-06-10T17:46:25;28.00;73.60
20366;DHT22;10341;49.894;8.822;2023-06-10T17:51:44;27.70;75.80
20366;DHT22;10341;49.894;8.822;2023-06-10T17:57:04;27.40;77.40
20366;DHT22;10341;49.894;8.822;2023-06-10T18:02:24;27.20;78.80
20366;DHT22;10341;49.894;8.822;2023-06-10T18:07:44;26.80;79.60
20366;DHT22;10341;49.894;8.822;2023-06-10T18:13:03;26.50;81.40
20366;DHT22;10341;49.894;8.822;2023-06-10T18:18:22;26.40;83.00
20366;DHT22;10341;49.894;8.822;2023-06-10T18:23:41;26.20;84.40
20366;DHT22;10341;49.894;8.822;2023-06-10T18:29:00;26.20;85.50
20366;DHT22;10341;49.894;8.822;2023-06-10T18:34:20;26.20;86.40
20366;DHT22;10341;49.894;8.822;2023-06-10T18:39:39;26.10;87.20
20366;DHT22;10341;49.894;8.822;2023-06-10T18:44:58;25.90;88.40
20366;DHT22;10341;49.894;8.822;2023-06-10T18:50:17;25.80;90.00
20366;DHT22;10341;49.894;8.822;2023-06-10T18:55:37;25.60;90.30
20366;DHT22;10341;49.894;8.822;2023-06-10T19:00:57;25.50;90.80
20366;DHT22;10341;49.894;8.822;2023-06-10T19:06:17;25.30;91.60
20366;DHT22;10341;49.894;8.822;2023-06-10T19:11:36;25.20;92.20
20366;DHT22;10341;49.894;8.822;2023-06-10T19:16:55;25.10;93.10
20366;DHT22;10341;49.894;8.822;2023-06-10T19:22:15;24.90;93.90
20366;DHT22;10341;49.894;8.822;2023-06-10T19:27:34;24.80;94.50
20366;DHT22;10341;49.894;8.822;2023-06-10T19:32:53;24.70;95.00
20366;DHT22;10341;49.894;8.822;2023-06-10T19:38:12;24.60;96.20
20366;DHT22;10341;49.894;8.822;2023-06-10T19:43:31;24.50;96.80
20366;DHT22;10341;49.894;8.822;2023-06-10T19:48:51;24.40;97.70
20366;DHT22;10341;49.894;8.822;2023-06-10T19:54:10;24.30;99.10
20366;DHT22;10341;49.894;8.822;2023-06-10T19:59:29;24.10;99.80
20366;DHT22;10341;49.894;8.822;2023-06-10T20:04:48;23.90;99.90
20366;DHT22;10341;49.894;8.822;2023-06-10T20:10:08;23.80;99.90
20366;DHT22;10341;49.894;8.822;2023-06-10T20:15:28;23.70;99.90
20366;DHT22;10341;49.894;8.822;2023-06-10T20:20:47;23.50;99.90
20366;DHT22;10341;49.894;8.822;2023-06-10T20:26:06;23.30;99.90
20366;DHT22;10341;49.894;8.822;2023-06-10T20:31:25;23.00;99.90
20366;DHT22;10341;49.894;8.822;2023-06-10T20:36:45;22.60;99.90
20366;DHT22;10341;49.894;8.822;2023-06-10T20:42:04;22.20;99.90
20366;DHT22;10341;49.894;8.822;2023-06-10T20:47:25;22.00;99.90
20366;DHT22;10341;49.894;8.822;2023-06-10T20:52:44;21.80;99.90
20366;DHT22;10341;49.894;8.822;2023-06-10T20:58:04;21.60;99.90
20366;DHT22;10341;49.894;8.822;2023-06-10T21:03:23;21.40;99.90
20366;DHT22;10341;49.894;8.822;2023-06-10T21:08:42;21.20;99.90
20366;DHT22;10341;49.894;8.822;2023-06-10T21:14:02;21.00;99.90
20366;DHT22;10341;49.894;8.822;2023-06-10T21:19:22;20.90;99.90
20366;DHT22;10341;49.894;8.822;2023-06-10T21:24:41;20.80;99.90
20366;DHT22;10341;49.894;8.822;2023-06-10T21:30:01;20.80;99.90
20366;DHT22;10341;49.894;8.822;2023-06-10T21:35:20;20.70;99.90
20366;DHT22;10341;49.894;8.822;2023-06-10T21:46:13;20.60;99.90
20366;DHT22;10341;49.894;8.822;2023-06-10T21:51:33;20.60;99.90
20366;DHT22;10341;49.894;8.822;2023-06-10T21:56:52;20.50;99.90
20366;DHT22;10341;49.894;8.822;2023-06-10T22:02:11;20.40;99.90
20366;DHT22;10341;49.894;8.822;2023-06-10T22:07:31;20.40;99.90
20366;DHT22;10341;49.894;8.822;2023-06-10T22:12:50;20.30;99.90
20366;DHT22;10341;49.894;8.822;2023-06-10T22:18:10;20.40;99.90
20366;DHT22;10341;49.894;8.822;2023-06-10T22:23:29;20.30;99.90
20366;DHT22;10341;49.894;8.822;2023-06-10T22:28:49;20.20;99.90
20366;DHT22;10341;49.894;8.822;2023-06-10T22:34:08;20.10;99.90
20366;DHT22;10341;49.894;8.822;2023-06-10T22:39:27;19.80;99.90
20366;DHT22;10341;49.894;8.822;2023-06-10T22:44:46;19.70;99.90
20366;DHT22;10341;49.894;8.822;2023-06-10T22:50:05;19.50;99.90
20366;DHT22;10341;49.894;8.822;2023-06-10T22:55:25;19.50;99.90
20366;DHT22;10341;49.894;8.822;2023-06-10T23:00:44;19.40;99.90
20366;DHT22;10341;49.894;8.822;2023-06-10T23:06:04;19.40;99.90
20366;DHT22;10341;49.894;8.822;2023-06-10T23:11:23;19.30;99.90
20366;DHT22;10341;49.894;8.822;2023-06-10T23:16:42;19.30;99.90
20366;DHT22;10341;49.894;8.822;2023-06-10T23:22:05;19.40;99.90
20366;DHT22;10341;49.894;8.822;2023-06-10T23:27:27;19.50;99.90
20366;DHT22;10341;49.894;8.822;2023-06-10T23:32:47;19.60;99.90
20366;DHT22;10341;49.894;8.822;2023-06-10T23:38:06;19.50;99.90
20366;DHT22;10341;49.894;8.822;2023-06-10T23:43:25;19.60;99.90
20366;DHT22;10341;49.894;8.822;2023-06-10T23:48:44;19.60;99.90
20366;DHT22;10341;49.894;8.822;2023-06-10T23:54:04;19.50;99.90
20366;DHT22;10341;49.894;8.822;2023-06-10T23:59:23;19.50;99.90
